Time;durP1;ratioP1;P1;durP2;ratioP2;P2;SDS_P1;SDS_P2;PMS_P1;PMS_P2;Temp;Humidity;BMP_temperature;BMP_pressure;BME280_temperature;BME280_humidity;BME280_pressure;Samples;Min_cycle;Max_cycle;Signal;HPM_P1;HPM_P2
2023/07/09 00:02:11;;;;;;;0.30;0.30;;;24.90;61.40;;;25.59;44.40;95443.69;5095540;28;20273;-41
2023/07/09 00:04:38;;;;;;;0.40;0.40;;;24.90;61.30;;;25.57;43.73;95444.75;5096073;28;20201;-41
2023/07/09 00:07:16;;;;;;;0.40;0.40;;;24.90;61.30;;;25.55;43.94;95444.22;5095956;28;20196;-41
2023/07/09 00:09:43;;;;;;;0.55;0.55;;;24.90;61.20;;;25.53;43.73;95441.00;5095506;28;20188;-41
2023/07/09 00:12:17;;;;;;;0.30;0.30;;;24.80;61.20;;;25.52;43.94;95444.78;5096006;28;20526;-42
2023/07/09 00:14:45;;;;;;;0.30;0.30;;;24.80;61.00;;;25.50;43.78;95448.81;5096743;28;20239;-41
2023/07/09 00:17:23;;;;;;;0.30;0.30;;;24.80;61.10;;;25.47;43.81;95450.16;5096059;28;20210;-41
2023/07/09 00:19:51;;;;;;;0.40;0.40;;;24.80;61.10;;;25.45;43.71;95446.97;5095522;28;20212;-43
2023/07/09 00:22:19;;;;;;;0.30;0.30;;;24.80;61.20;;;25.44;43.95;95456.09;5096110;28;20712;-41
2023/07/09 00:24:50;;;;;;;0.50;0.50;;;24.80;61.10;;;25.41;44.28;95451.25;5095955;28;20581;-41
2023/07/09 00:27:20;;;;;;;0.38;0.38;;;24.70;61.10;;;25.40;43.92;95449.63;5095983;28;20241;-44
2023/07/09 00:29:47;;;;;;;0.30;0.30;;;24.70;61.10;;;25.39;43.72;95456.09;5096191;28;20564;-43
2023/07/09 00:32:22;;;;;;;0.30;0.30;;;24.70;61.30;;;25.37;44.00;95447.47;5096058;28;20624;-41
2023/07/09 00:34:51;;;;;;;0.30;0.30;;;24.70;61.70;;;25.35;43.97;95453.13;5095812;28;20613;-41
2023/07/09 00:37:21;;;;;;;0.30;0.30;;;24.60;61.40;;;25.34;44.33;95451.53;5095707;28;20217;-46
2023/07/09 00:39:49;;;;;;;0.40;0.40;;;24.70;61.50;;;25.33;44.11;95446.41;5096328;28;20189;-41
2023/07/09 00:42:23;;;;;;;0.40;0.40;;;24.60;61.30;;;25.32;44.18;95455.56;5095512;28;20184;-43
2023/07/09 00:44:53;;;;;;;0.32;0.32;;;24.60;61.70;;;25.30;44.05;95445.06;5095986;28;20509;-44
2023/07/09 00:47:34;;;;;;;0.40;0.40;;;24.60;61.50;;;25.26;44.14;95450.19;5095690;28;20201;-45
2023/07/09 00:50:36;;;;;;;0.30;0.30;;;24.60;61.50;;;25.20;44.19;95445.91;5095344;28;20213;-42
2023/07/09 00:53:17;;;;;;;0.40;0.40;;;24.50;61.40;;;25.20;44.08;95453.94;5090071;28;20214;-41
2023/07/09 00:55:57;;;;;;;0.30;0.30;;;24.50;61.80;;;25.18;44.54;95455.31;5095779;28;20612;-43
2023/07/09 00:58:26;;;;;;;0.40;0.40;;;24.50;61.90;;;25.18;44.76;95447.25;5095463;28;20250;-46
2023/07/09 01:01:01;;;;;;;0.40;0.40;;;24.50;61.80;;;25.16;44.40;95452.06;5095403;28;20192;-41
2023/07/09 01:03:42;;;;;;;0.50;0.50;;;24.50;61.70;;;25.12;44.45;95457.22;5078070;28;20188;-41
2023/07/09 01:06:10;;;;;;;0.30;0.30;;;24.40;61.50;;;25.12;44.59;95453.69;5094966;28;20273;-41
2023/07/09 01:08:43;;;;;;;0.30;0.30;;;24.50;61.70;;;25.09;44.60;95457.72;5095293;28;20223;-41
2023/07/09 01:11:21;;;;;;;0.30;0.30;;;24.40;61.70;;;25.07;44.56;95443.78;5095574;28;20302;-41
2023/07/09 01:13:56;;;;;;;0.40;0.40;;;24.40;61.90;;;25.06;44.55;95455.56;5095797;28;20185;-41
2023/07/09 01:16:28;;;;;;;0.47;0.47;;;24.40;62.00;;;25.04;44.63;95450.50;5095531;28;20509;-41
2023/07/09 01:18:56;;;;;;;0.32;0.32;;;24.40;62.20;;;25.04;45.00;95450.50;5095080;28;20213;-41
2023/07/09 01:21:23;;;;;;;0.50;0.50;;;24.40;62.10;;;25.04;45.08;95442.44;5095831;28;20664;-41
2023/07/09 01:23:52;;;;;;;0.30;0.30;;;24.40;62.00;;;25.04;44.86;95444.34;5095107;28;20283;-41
2023/07/09 01:26:25;;;;;;;0.30;0.30;;;24.30;62.20;;;25.02;45.29;95447.25;5094981;28;20571;-41
2023/07/09 01:28:54;;;;;;;0.30;0.30;;;24.30;62.30;;;25.01;45.21;95451.03;5094602;28;20209;-42
2023/07/09 01:31:23;;;;;;;0.30;0.30;;;24.40;62.30;;;25.01;45.20;95450.22;5111037;28;20234;-42
2023/07/09 01:33:50;;;;;;;0.30;0.30;;;24.30;62.30;;;24.99;45.16;95447.03;5094994;28;20217;-41
2023/07/09 01:36:23;;;;;;;0.50;0.50;;;24.30;62.30;;;24.98;45.29;95443.53;5093933;28;20199;-41
2023/07/09 01:38:55;;;;;;;0.40;0.40;;;24.30;62.30;;;24.96;45.20;95440.28;5095474;28;20238;-41
2023/07/09 01:41:23;;;;;;;0.30;0.30;;;24.30;62.20;;;24.96;44.98;95445.66;5094618;28;20584;-41
2023/07/09 01:43:51;;;;;;;0.40;0.40;;;24.30;62.30;;;24.94;45.35;95445.16;5094769;28;20195;-41
2023/07/09 01:46:18;;;;;;;0.30;0.30;;;24.30;62.30;;;24.93;45.45;95446.22;5093951;28;20206;-41
2023/07/09 01:48:45;;;;;;;0.40;0.40;;;24.20;62.50;;;24.92;45.42;95448.09;5094857;28;20711;-42
2023/07/09 01:51:18;;;;;;;0.40;0.40;;;24.30;62.60;;;24.90;45.77;95447.56;5094825;28;20656;-41
2023/07/09 01:53:45;;;;;;;0.40;0.40;;;24.30;62.90;;;24.90;45.66;95444.06;5093844;28;20217;-42
2023/07/09 01:56:12;;;;;;;0.40;0.40;;;24.30;62.80;;;24.88;45.87;95447.03;5093945;28;20200;-41
2023/07/09 01:58:41;;;;;;;0.30;0.30;;;24.20;62.80;;;24.88;45.86;95447.03;5111560;28;20221;-42
2023/07/09 02:01:11;;;;;;;0.40;0.40;;;24.20;62.80;;;24.87;45.77;95452.66;5094661;28;20248;-41
2023/07/09 02:03:38;;;;;;;0.30;0.30;;;24.20;62.80;;;24.87;45.84;95453.47;5094624;28;20632;-41
2023/07/09 02:06:09;;;;;;;0.32;0.32;;;24.20;62.90;;;24.86;45.92;95449.16;5077137;28;20195;-41
2023/07/09 02:08:37;;;;;;;0.50;0.50;;;24.20;62.90;;;24.86;46.13;95457.22;5094799;28;20240;-41
2023/07/09 02:11:04;;;;;;;0.30;0.30;;;24.20;62.90;;;24.86;46.10;95451.06;5094928;28;20200;-42
2023/07/09 02:13:31;;;;;;;0.40;0.40;;;24.20;62.70;;;24.82;45.70;95450.78;5093532;28;20271;-41
2023/07/09 02:15:59;;;;;;;0.40;0.40;;;24.20;62.60;;;24.81;45.80;95445.69;5110645;28;20209;-41
2023/07/09 02:18:29;;;;;;;0.40;0.40;;;24.10;62.80;;;24.80;46.17;95446.75;5094507;28;20658;-41
2023/07/09 02:20:56;;;;;;;0.60;0.60;;;24.10;62.90;;;24.80;46.23;95454.81;5093691;28;20237;-41
2023/07/09 02:23:27;;;;;;;0.38;0.38;;;24.20;63.00;;;24.77;46.23;95450.78;5094500;28;20623;-41
2023/07/09 02:25:54;;;;;;;0.30;0.30;;;24.10;62.80;;;24.76;46.09;95449.19;5094661;28;20184;-44
2023/07/09 02:28:22;;;;;;;0.30;0.30;;;24.10;62.70;;;24.74;46.03;95454.81;5094600;28;20180;-42
2023/07/09 02:30:49;;;;;;;0.30;0.30;;;24.10;62.80;;;24.74;45.93;95459.38;5095206;28;20203;-44
2023/07/09 02:33:16;;;;;;;0.30;0.30;;;24.10;62.90;;;24.72;46.44;95454.28;5097033;28;20561;-43
2023/07/09 02:35:43;;;;;;;0.50;0.50;;;24.10;63.00;;;24.71;46.07;95458.03;5097274;28;20259;-41
2023/07/09 02:38:10;;;;;;;0.40;0.40;;;24.00;63.10;;;24.70;46.25;95456.41;5098034;28;20206;-42
2023/07/09 02:40:39;;;;;;;0.50;0.50;;;24.10;63.20;;;24.69;46.31;95462.06;5098001;28;20193;-43
2023/07/09 02:43:06;;;;;;;0.32;0.32;;;24.00;63.20;;;24.69;46.27;95459.38;5097058;28;20587;-41
2023/07/09 02:45:33;;;;;;;0.40;0.40;;;24.10;63.10;;;24.68;46.15;95452.38;5113962;28;20199;-46
2023/07/09 02:48:00;;;;;;;0.30;0.30;;;24.10;63.10;;;24.66;46.22;95457.22;5096922;28;20314;-42
2023/07/09 02:50:33;;;;;;;0.40;0.40;;;24.10;63.10;;;24.64;46.38;95460.13;5114247;28;20198;-42
2023/07/09 02:53:00;;;;;;;0.30;0.30;;;24.00;63.10;;;24.61;45.87;95460.69;5096663;28;20216;-41
2023/07/09 02:55:29;;;;;;;0.40;0.40;;;24.00;63.10;;;24.60;46.10;95456.38;5098292;28;20203;-41
2023/07/09 02:57:56;;;;;;;0.50;0.50;;;24.00;63.00;;;24.57;46.11;95465.78;5096658;28;20264;-41
2023/07/09 03:00:23;;;;;;;0.35;0.35;;;24.00;62.80;;;24.55;46.08;95469.81;5097692;28;20231;-41
2023/07/09 03:02:50;;;;;;;0.32;0.32;;;24.00;62.80;;;24.54;45.89;95457.47;5113694;28;20194;-41
2023/07/09 03:05:17;;;;;;;0.30;0.30;;;24.00;62.90;;;24.52;45.97;95467.63;5113557;28;20231;-41
2023/07/09 03:07:44;;;;;;;0.40;0.40;;;23.90;63.00;;;24.50;46.29;95454.50;5097999;28;20191;-41
2023/07/09 03:10:12;;;;;;;0.32;0.32;;;23.90;63.10;;;24.49;46.29;95460.16;5097709;28;20524;-41
2023/07/09 03:12:38;;;;;;;0.40;0.40;;;23.90;63.00;;;24.48;46.39;95456.66;5097482;28;20248;-41
2023/07/09 03:15:06;;;;;;;0.40;0.40;;;23.90;63.10;;;24.46;46.31;95462.28;5097352;28;20198;-41
2023/07/09 03:17:33;;;;;;;0.40;0.40;;;23.90;63.00;;;24.45;46.49;95467.91;5096298;28;20211;-41
2023/07/09 03:20:00;;;;;;;0.35;0.35;;;23.90;63.10;;;24.43;46.45;95470.06;5113537;28;20210;-41
2023/07/09 03:22:28;;;;;;;0.40;0.40;;;23.80;63.00;;;24.44;46.49;95463.63;5096134;28;20210;-41
2023/07/09 03:24:55;;;;;;;0.30;0.30;;;23.80;63.10;;;24.41;46.53;95462.28;5097164;28;20625;-43
2023/07/09 03:27:22;;;;;;;0.30;0.30;;;23.80;63.00;;;24.41;46.37;95467.63;5097196;28;20698;-41
2023/07/09 03:29:49;;;;;;;0.30;0.30;;;23.80;63.10;;;24.40;46.56;95466.03;5097621;28;20586;-41
2023/07/09 03:32:16;;;;;;;0.40;0.40;;;23.80;63.10;;;24.37;46.42;95466.53;5096288;28;20230;-41
2023/07/09 03:34:43;;;;;;;0.30;0.30;;;23.80;63.20;;;24.35;46.56;95468.72;5096805;28;20613;-41
2023/07/09 03:37:10;;;;;;;0.40;0.40;;;23.70;63.20;;;24.36;46.66;95472.19;5095982;28;20252;-41
2023/07/09 03:39:37;;;;;;;0.35;0.35;;;23.80;63.30;;;24.35;46.67;95467.88;5097061;28;20254;-41
2023/07/09 03:42:05;;;;;;;0.40;0.40;;;23.70;63.30;;;24.33;46.51;95470.00;5095685;28;20237;-41
2023/07/09 03:44:32;;;;;;;0.40;0.40;;;23.70;63.40;;;24.32;46.71;95471.13;5096613;28;20637;-41
2023/07/09 03:46:59;;;;;;;0.40;0.40;;;23.70;63.30;;;24.32;46.81;95476.47;5097017;28;20213;-42
2023/07/09 03:49:26;;;;;;;0.40;0.40;;;23.70;63.30;;;24.28;46.67;95471.63;5096644;28;20186;-43
2023/07/09 03:51:53;;;;;;;0.30;0.30;;;23.70;63.40;;;24.27;46.94;95470.00;5096622;28;20190;-41
2023/07/09 03:54:20;;;;;;;0.40;0.40;;;23.70;63.40;;;24.26;47.11;95471.09;5096755;28;20222;-42
2023/07/09 03:56:48;;;;;;;0.40;0.40;;;23.70;63.50;;;24.25;47.06;95474.81;5096551;28;20220;-41
2023/07/09 03:59:15;;;;;;;0.40;0.40;;;23.70;63.50;;;24.24;47.13;95473.25;5096324;28;20324;-41
2023/07/09 04:01:45;;;;;;;0.40;0.40;;;23.70;63.50;;;24.24;47.24;95473.25;5096378;28;20210;-41
2023/07/09 04:04:13;;;;;;;0.40;0.40;;;23.70;63.60;;;24.22;47.07;95472.69;5095443;28;20206;-41
2023/07/09 04:06:40;;;;;;;0.40;0.40;;;23.60;63.60;;;24.23;47.39;95468.13;5096357;28;20626;-41
2023/07/09 04:09:07;;;;;;;0.40;0.40;;;23.60;63.60;;;24.20;47.12;95472.13;5096529;28;20193;-41
2023/07/09 04:11:35;;;;;;;0.40;0.40;;;23.70;63.90;;;24.22;47.38;95477.25;5096274;28;20222;-40
2023/07/09 04:14:02;;;;;;;0.40;0.40;;;23.70;64.00;;;24.22;47.34;95482.63;5096074;28;20195;-42
2023/07/09 04:16:29;;;;;;;0.38;0.38;;;23.60;63.80;;;24.21;47.24;95487.16;5096149;28;20193;-42
2023/07/09 04:18:56;;;;;;;0.40;0.40;;;23.70;63.90;;;24.20;47.51;95482.88;5096321;28;20221;-41
2023/07/09 04:21:23;;;;;;;0.38;0.38;;;23.70;63.90;;;24.19;47.27;95483.94;5096031;28;20608;-41
2023/07/09 04:23:50;;;;;;;0.40;0.40;;;23.70;63.90;;;24.20;47.32;95495.47;5096175;28;20632;-41
2023/07/09 04:26:17;;;;;;;0.40;0.40;;;23.60;63.90;;;24.18;47.66;95485.03;5111850;28;20668;-41
2023/07/09 04:28:44;;;;;;;0.32;0.32;;;23.60;63.90;;;24.18;47.51;95497.59;5096268;28;20187;-41
2023/07/09 04:31:11;;;;;;;0.40;0.40;;;23.70;64.00;;;24.18;47.69;95493.06;5095915;28;20229;-42
2023/07/09 04:33:38;;;;;;;0.40;0.40;;;23.60;64.00;;;24.17;47.72;95495.97;5095741;28;20202;-42
2023/07/09 04:36:06;;;;;;;0.40;0.40;;;23.70;64.10;;;24.17;47.57;95490.63;5096092;28;20192;-41
2023/07/09 04:38:33;;;;;;;0.35;0.35;;;23.60;64.10;;;24.14;47.81;95495.47;5095687;28;20316;-42
2023/07/09 04:41:01;;;;;;;0.40;0.40;;;23.60;64.20;;;24.16;47.86;95502.41;5095726;28;20230;-41
2023/07/09 04:43:28;;;;;;;0.40;0.40;;;23.70;64.20;;;24.16;47.97;95499.72;5095863;28;20225;-41
2023/07/09 04:45:55;;;;;;;0.40;0.40;;;23.70;64.20;;;24.14;47.90;95498.16;5094769;28;20276;-41
2023/07/09 04:48:22;;;;;;;0.35;0.35;;;23.60;64.20;;;24.14;48.01;95503.50;5095629;28;20190;-41
2023/07/09 04:50:50;;;;;;;0.40;0.40;;;23.60;64.10;;;24.14;47.95;95497.31;5095589;28;20198;-41
2023/07/09 04:53:18;;;;;;;0.30;0.30;;;23.60;64.20;;;24.13;47.83;95499.22;5094957;28;20577;-41
2023/07/09 04:55:45;;;;;;;0.40;0.40;;;23.70;64.20;;;24.13;48.08;95499.22;5095603;28;20649;-41
2023/07/09 04:58:12;;;;;;;0.40;0.40;;;23.70;64.20;;;24.13;48.04;95496.53;5094770;28;20219;-41
2023/07/09 05:00:39;;;;;;;0.40;0.40;;;23.60;64.20;;;24.13;47.95;95501.06;5095438;28;20560;-41
2023/07/09 05:03:06;;;;;;;0.32;0.32;;;23.70;64.30;;;24.13;48.08;95499.22;5095175;28;20205;-41
2023/07/09 05:05:34;;;;;;;0.30;0.30;;;23.60;64.20;;;24.12;48.17;95500.28;5095334;28;20199;-41
2023/07/09 05:08:01;;;;;;;0.40;0.40;;;23.60;64.20;;;24.13;48.26;95496.53;5095336;28;20270;-41
2023/07/09 05:10:28;;;;;;;0.30;0.30;;;23.70;64.40;;;24.14;48.12;95497.31;5095302;28;20216;-41
2023/07/09 05:12:56;;;;;;;0.30;0.30;;;23.70;64.40;;;24.13;48.33;95501.88;5095657;28;20197;-41
2023/07/09 05:15:23;;;;;;;0.30;0.30;;;23.70;64.40;;;24.13;48.28;95498.38;5095447;28;20192;-41
2023/07/09 05:17:52;;;;;;;0.30;0.30;;;23.60;64.40;;;24.13;48.46;95504.56;5095077;28;20713;-41
2023/07/09 05:20:19;;;;;;;0.40;0.40;;;23.70;64.50;;;24.14;48.26;95500.00;5095426;28;20192;-41
2023/07/09 05:22:46;;;;;;;0.40;0.40;;;23.70;64.60;;;24.14;48.18;95506.19;5095145;28;20291;-41
2023/07/09 05:25:13;;;;;;;0.30;0.30;;;23.70;64.60;;;24.16;48.55;95507.78;5094058;28;20535;-41
2023/07/09 05:27:40;;;;;;;0.40;0.40;;;23.70;64.60;;;24.16;48.27;95505.91;5094974;28;20285;-41
2023/07/09 05:30:08;;;;;;;0.30;0.30;;;23.70;64.60;;;24.17;48.42;95512.06;5095005;28;20657;-41
2023/07/09 05:32:37;;;;;;;0.40;0.40;;;23.70;64.60;;;24.18;48.39;95513.69;5095019;28;20229;-41
2023/07/09 05:35:05;;;;;;;0.30;0.30;;;23.70;64.60;;;24.19;48.79;95512.63;5095087;28;20221;-41
2023/07/09 05:37:32;;;;;;;0.40;0.40;;;23.70;64.70;;;24.18;48.57;95519.03;5095522;28;20653;-41
2023/07/09 05:40:05;;;;;;;0.40;0.40;;;23.70;64.70;;;24.19;48.43;95512.63;5094989;28;20210;-43
2023/07/09 05:42:32;;;;;;;0.50;0.50;;;23.70;64.80;;;24.20;48.62;95512.34;5095354;28;20189;-41
2023/07/09 05:45:00;;;;;;;0.30;0.30;;;23.70;65.00;;;24.22;48.88;95520.16;5111555;28;20259;-41
2023/07/09 05:47:27;;;;;;;0.30;0.30;;;23.80;65.00;;;24.22;48.89;95526.31;5094983;28;20199;-41
2023/07/09 05:49:55;;;;;;;0.47;0.47;;;23.80;65.00;;;24.24;48.76;95523.34;5095145;28;20217;-40
2023/07/09 05:52:24;;;;;;;0.50;0.50;;;23.80;65.10;;;24.25;49.03;95519.59;5095158;28;20585;-40
2023/07/09 05:54:52;;;;;;;0.30;0.30;;;23.80;65.10;;;24.27;49.08;95520.16;5094694;28;20243;-42
2023/07/09 05:57:20;;;;;;;0.40;0.40;;;23.80;65.10;;;24.28;48.85;95521.78;5094793;28;20297;-41
2023/07/09 05:59:47;;;;;;;0.30;0.30;;;23.80;65.10;;;24.29;49.03;95524.19;5094792;28;20210;-40
2023/07/09 06:02:19;;;;;;;0.40;0.40;;;23.80;65.10;;;24.29;49.35;95518.81;5094828;28;20679;-41
2023/07/09 06:04:50;;;;;;;0.30;0.30;;;23.90;65.30;;;24.30;49.07;95517.75;5094676;28;20184;-44
2023/07/09 06:07:20;;;;;;;0.30;0.30;;;23.90;65.10;;;24.34;49.15;95519.88;5098781;28;20192;-42
2023/07/09 06:09:48;;;;;;;0.30;0.30;;;23.80;65.00;;;24.35;49.02;95526.88;5099002;28;20244;-43
2023/07/09 06:12:18;;;;;;;0.60;0.60;;;23.90;65.10;;;24.36;49.04;95520.44;5098853;28;20191;-39
2023/07/09 06:14:46;;;;;;;0.30;0.30;;;23.90;65.10;;;24.38;48.95;95526.34;5098437;28;20199;-42
2023/07/09 06:17:13;;;;;;;0.30;0.30;;;23.90;65.10;;;24.40;49.07;95526.88;5098658;28;20229;-42
2023/07/09 06:19:40;;;;;;;0.38;0.38;;;23.90;65.10;;;24.41;48.91;95520.44;5098818;28;20218;-42
2023/07/09 06:22:07;;;;;;;0.30;0.30;;;24.00;65.10;;;24.42;48.81;95524.75;5098471;28;20649;-42
2023/07/09 06:24:35;;;;;;;0.30;0.30;;;24.00;64.90;;;24.46;48.66;95532.00;5098376;28;20199;-46
2023/07/09 06:27:02;;;;;;;0.40;0.40;;;24.00;64.90;;;24.48;48.53;95528.25;5098545;28;20591;-42
2023/07/09 06:29:29;;;;;;;0.30;0.30;;;24.00;64.80;;;24.50;48.62;95534.97;5098365;28;20707;-40
2023/07/09 06:31:57;;;;;;;0.50;0.50;;;24.10;64.80;;;24.52;48.58;95537.38;5098257;28;20195;-41
2023/07/09 06:34:24;;;;;;;0.30;0.30;;;24.00;64.60;;;24.53;48.69;95539.78;5098019;28;20532;-41
2023/07/09 06:36:51;;;;;;;0.50;0.50;;;24.10;64.60;;;24.54;48.45;95533.34;5098655;28;20199;-39
2023/07/09 06:39:21;;;;;;;0.40;0.40;;;24.10;64.30;;;24.57;48.07;95532.81;5098305;28;20238;-43
2023/07/09 06:41:49;;;;;;;0.30;0.30;;;24.10;64.20;;;24.57;48.21;95532.81;5114182;28;20216;-41
2023/07/09 06:44:38;;;;;;;0.30;0.30;;;24.10;64.10;;;24.58;47.89;95534.44;5097923;28;20195;-42
2023/07/09 06:47:05;;;;;;;0.40;0.40;;;24.10;63.90;;;24.60;47.72;95532.28;5097949;28;20200;-41
2023/07/09 06:49:32;;;;;;;0.32;0.32;;;24.10;63.80;;;24.64;47.75;95534.44;5098225;28;20194;-39
2023/07/09 06:51:59;;;;;;;0.30;0.30;;;24.10;63.60;;;24.63;47.54;95533.63;5114014;28;20205;-41
2023/07/09 06:54:27;;;;;;;0.30;0.30;;;24.20;63.70;;;24.66;47.41;95530.44;5097938;28;20241;-42
2023/07/09 06:56:54;;;;;;;0.30;0.30;;;24.20;63.60;;;24.68;47.08;95533.69;5097767;28;20290;-42
2023/07/09 06:59:21;;;;;;;0.43;0.43;;;24.20;63.50;;;24.71;47.06;95532.34;5097044;28;20307;-42
2023/07/09 07:01:48;;;;;;;0.40;0.40;;;24.20;63.30;;;24.72;46.91;95539.31;5097923;28;20205;-41
2023/07/09 07:04:16;;;;;;;0.40;0.40;;;24.20;63.20;;;24.72;46.75;95534.75;5097955;28;20268;-41
2023/07/09 07:06:44;;;;;;;0.40;0.40;;;24.20;63.00;;;24.76;46.75;95532.34;5097615;28;20285;-41
2023/07/09 07:09:15;;;;;;;0.40;0.40;;;24.20;62.90;;;24.76;46.61;95538.50;5097729;28;20227;-47
2023/07/09 07:11:41;;;;;;;0.30;0.30;;;24.30;62.80;;;24.78;46.45;95535.56;5097798;28;20596;-41
2023/07/09 07:14:09;;;;;;;0.30;0.30;;;24.30;62.70;;;24.79;46.18;95534.47;5097277;28;20532;-40
2023/07/09 07:16:36;;;;;;;0.28;0.28;;;24.30;62.70;;;24.81;46.38;95532.34;5112951;28;20238;-41
2023/07/09 07:19:03;;;;;;;0.40;0.40;;;24.30;62.90;;;24.82;46.28;95539.31;5097548;28;20237;-45
2023/07/09 07:21:30;;;;;;;0.50;0.50;;;24.30;63.40;;;24.85;46.13;95528.06;5097348;28;20193;-42
2023/07/09 07:23:57;;;;;;;0.57;0.57;;;24.40;62.50;;;24.87;46.21;95525.09;5097559;28;20193;-41
2023/07/09 07:26:25;;;;;;;0.32;0.32;;;24.40;62.40;;;24.88;45.94;95524.03;5097174;28;20237;-40
2023/07/09 07:28:52;;;;;;;0.40;0.40;;;24.40;62.50;;;24.90;45.84;95530.75;5097241;28;20207;-41
2023/07/09 07:31:19;;;;;;;0.32;0.32;;;24.40;62.60;;;24.92;45.98;95523.22;5097365;28;20561;-42
2023/07/09 07:33:47;;;;;;;0.40;0.40;;;24.40;62.50;;;24.94;45.71;95526.44;5097348;28;20635;-42
2023/07/09 07:36:14;;;;;;;0.38;0.38;;;24.40;62.40;;;24.96;45.65;95525.38;5097099;28;20218;-45
2023/07/09 07:38:44;;;;;;;0.45;0.45;;;24.40;62.30;;;24.97;45.72;95518.94;5096950;28;20562;-41
2023/07/09 07:41:11;;;;;;;0.50;0.50;;;24.50;62.10;;;25.00;44.99;95524.56;5096049;28;20228;-42
2023/07/09 07:43:38;;;;;;;0.60;0.60;;;24.50;61.70;;;25.02;44.95;95526.97;5097189;28;20205;-41
2023/07/09 07:46:07;;;;;;;0.55;0.55;;;24.50;61.60;;;25.05;44.97;95521.09;5097058;28;20192;-42
2023/07/09 07:48:35;;;;;;;0.50;0.50;;;24.50;61.40;;;25.07;44.31;95521.59;5096766;28;20253;-41
2023/07/09 07:51:03;;;;;;;0.40;0.40;;;24.60;61.00;;;25.09;44.04;95519.47;5095826;28;20218;-42
2023/07/09 07:53:31;;;;;;;0.35;0.35;;;24.60;60.70;;;25.12;43.77;95526.19;5096643;28;20210;-42
2023/07/09 07:55:58;;;;;;;0.52;0.52;;;24.60;60.50;;;25.13;43.82;95523.22;5095778;28;20250;-42
2023/07/09 07:58:25;;;;;;;0.30;0.30;;;24.60;60.30;;;25.17;43.24;95515.44;5097084;28;20195;-40
2023/07/09 08:00:57;;;;;;;0.30;0.30;;;24.60;60.10;;;25.20;43.03;95521.06;5096497;28;20213;-41
2023/07/09 08:03:25;;;;;;;0.28;0.28;;;24.70;59.60;;;25.22;42.90;95516.25;5096767;27;20535;-45
2023/07/09 08:05:52;;;;;;;0.30;0.30;;;24.70;59.80;;;25.26;42.74;95513.81;5096385;28;20183;-41
2023/07/09 08:08:20;;;;;;;0.30;0.30;;;24.70;59.60;;;25.30;42.18;95522.94;5096610;28;20194;-41
2023/07/09 08:10:50;;;;;;;0.30;0.30;;;24.80;59.50;;;25.33;42.39;95517.03;5096968;28;20187;-40
2023/07/09 08:13:18;;;;;;;0.50;0.50;;;24.80;59.20;;;25.37;42.12;95517.31;5095726;28;20250;-40
2023/07/09 08:15:46;;;;;;;0.30;0.30;;;24.80;58.90;;;25.40;41.72;95516.78;5096198;28;20234;-41
2023/07/09 08:18:14;;;;;;;0.40;0.40;;;24.80;58.80;;;25.44;41.81;95511.66;5096118;28;20593;-41
2023/07/09 08:20:45;;;;;;;0.40;0.40;;;24.90;58.70;;;25.47;41.61;95517.28;5096381;28;20245;-41
2023/07/09 08:23:13;;;;;;;0.30;0.30;;;24.90;58.30;;;25.49;41.74;95520.53;5096607;28;20530;-42
2023/07/09 08:25:40;;;;;;;0.30;0.30;;;24.90;58.40;;;25.52;41.11;95520.00;5095902;28;20199;-43
2023/07/09 08:28:07;;;;;;;0.50;0.50;;;25.00;58.00;;;25.53;41.03;95516.22;5095665;28;20633;-41
2023/07/09 08:30:36;;;;;;;0.30;0.30;;;25.00;57.90;;;25.57;40.55;95513.78;5095638;28;20652;-40
2023/07/09 08:33:03;;;;;;;0.40;0.40;;;25.00;57.60;;;25.59;40.87;95511.63;5095994;28;20236;-40
2023/07/09 08:35:33;;;;;;;0.43;0.43;;;25.10;57.60;;;25.62;40.69;95515.66;5096070;28;20217;-39
2023/07/09 08:38:03;;;;;;;0.30;0.30;;;25.10;57.50;;;25.66;40.53;95517.53;5095898;28;20193;-42
2023/07/09 08:40:31;;;;;;;0.30;0.30;;;25.10;57.50;;;25.70;40.88;95518.59;5095654;28;20217;-42
2023/07/09 08:43:26;;;;;;;0.30;0.30;;;25.10;57.50;;;25.73;40.34;95520.75;5094783;28;20207;-40
2023/07/09 08:46:41;;;;;;;0.50;0.50;;;25.20;57.20;;;25.73;40.48;95522.59;5094715;28;20264;-39
2023/07/09 08:49:19;;;;;;;0.30;0.30;;;25.20;57.20;;;25.79;40.33;95523.41;5084719;28;20216;-39
2023/07/09 08:51:48;;;;;;;0.30;0.30;;;25.30;57.30;;;25.81;40.30;95515.88;5094819;28;20273;-42
2023/07/09 08:54:28;;;;;;;0.30;0.30;;;25.30;57.60;;;25.83;40.31;95521.75;5095657;28;20220;-44
2023/07/09 08:57:02;;;;;;;0.40;0.40;;;25.30;57.40;;;25.87;40.09;95523.63;5111822;28;20260;-40
2023/07/09 08:59:30;;;;;;;0.30;0.30;;;25.30;57.20;;;25.88;40.41;95525.25;5094907;28;20210;-52
2023/07/09 09:02:00;;;;;;;0.40;0.40;;;25.40;57.40;;;25.92;40.35;95516.66;5095821;28;20223;-41
2023/07/09 09:04:34;;;;;;;0.32;0.32;;;25.30;57.00;;;25.95;40.05;95518.78;5094856;28;20498;-42
2023/07/09 09:07:28;;;;;;;0.28;0.28;;;25.40;57.00;;;25.95;39.82;95508.84;5094443;28;20179;-41
2023/07/09 09:10:02;;;;;;;0.30;0.30;;;25.40;57.20;;;25.98;40.24;95510.97;5094608;28;20218;-42
2023/07/09 09:12:40;;;;;;;0.30;0.30;;;25.50;57.20;;;26.01;39.82;95515.81;5095323;28;20182;-42
2023/07/09 09:15:27;;;;;;;0.30;0.30;;;25.40;56.90;;;26.03;40.42;95518.22;5095045;28;20224;-40
2023/07/09 09:18:09;;;;;;;0.30;0.30;;;25.50;57.00;;;26.04;40.15;95514.44;5095230;28;20197;-40
2023/07/09 09:20:37;;;;;;;0.30;0.30;;;25.50;56.70;;;26.11;39.89;95508.78;5094330;28;20207;-46
2023/07/09 09:23:07;;;;;;;0.30;0.30;;;25.60;57.90;;;26.14;39.80;95510.94;5094191;28;20193;-45
2023/07/09 09:25:41;;;;;;;0.30;0.30;;;25.60;56.30;;;26.15;39.28;95505.28;5111029;28;20257;-43
2023/07/09 09:28:08;;;;;;;0.30;0.30;;;25.60;56.20;;;26.17;39.59;95503.13;5095202;28;20244;-44
2023/07/09 09:30:36;;;;;;;0.30;0.30;;;25.60;56.50;;;26.21;39.76;95514.13;5095084;28;20210;-42
2023/07/09 09:33:09;;;;;;;0.30;0.30;;;25.60;56.40;;;26.24;39.67;95516.25;5095068;28;20226;-43
2023/07/09 09:35:47;;;;;;;0.30;0.30;;;25.70;56.00;;;26.28;39.63;95516.50;5094083;28;20267;-40
2023/07/09 09:38:21;;;;;;;0.30;0.30;;;25.70;56.00;;;26.31;38.95;95513.28;5095277;28;20188;-44
2023/07/09 09:40:49;;;;;;;0.32;0.32;;;25.80;55.70;;;26.34;39.03;95502.75;5097248;28;20219;-42
2023/07/09 09:43:20;;;;;;;0.30;0.30;;;25.80;55.90;;;26.39;38.93;95511.88;5099118;28;20199;-45
2023/07/09 09:45:50;;;;;;;0.30;0.30;;;25.80;55.80;;;26.42;38.98;95511.34;5099083;28;20179;-44
2023/07/09 09:48:31;;;;;;;0.32;0.32;;;25.80;55.90;;;26.44;38.89;95503.78;5099101;28;20223;-42
2023/07/09 09:51:03;;;;;;;0.38;0.38;;;25.90;55.50;;;26.47;39.06;95503.22;5099550;28;20216;-39
2023/07/09 09:53:38;;;;;;;0.30;0.30;;;25.90;55.70;;;26.50;38.30;95511.53;5098995;28;20196;-40
2023/07/09 09:56:23;;;;;;;0.30;0.30;;;26.00;55.20;;;26.54;38.21;95509.09;5099018;28;20622;-42
2023/07/09 09:58:56;;;;;;;0.40;0.40;;;26.00;55.10;;;26.56;38.59;95509.59;5098425;28;20196;-43
2023/07/09 10:01:31;;;;;;;0.30;0.30;;;26.00;55.20;;;26.60;38.61;95520.63;5098805;28;20640;-42
2023/07/09 10:04:01;;;;;;;0.40;0.40;;;26.00;55.10;;;26.60;38.95;95513.38;5099416;28;20184;-42
2023/07/09 10:06:41;;;;;;;0.30;0.30;;;26.10;55.40;;;26.63;38.07;95510.09;5098030;28;20196;-42
2023/07/09 10:09:45;;;;;;;0.30;0.30;;;26.10;55.00;;;26.64;38.01;95506.34;5098121;28;20185;-42
2023/07/09 10:12:18;;;;;;;0.30;0.30;;;26.10;55.00;;;26.68;38.05;95509.25;5099242;28;20218;-42
2023/07/09 10:15:05;;;;;;;0.30;0.30;;;26.10;54.70;;;26.71;37.97;95508.72;5099017;28;20196;-40
2023/07/09 10:17:38;;;;;;;0.40;0.40;;;26.20;54.20;;;26.73;37.87;95508.44;5098891;28;20272;-40
2023/07/09 10:20:21;;;;;;;0.30;0.30;;;26.20;54.10;;;26.76;37.72;95506.00;5098970;28;20216;-39
2023/07/09 10:23:21;;;;;;;0.30;0.30;;;26.20;53.80;;;26.79;37.34;95510.84;5098489;28;20571;-40
2023/07/09 10:26:03;;;;;;;0.40;0.40;;;26.20;54.10;;;26.84;37.31;95510.00;5098045;28;20708;-39
2023/07/09 10:28:55;;;;;;;0.40;0.40;;;26.20;54.00;;;26.87;37.46;95501.38;5098865;28;20221;-42
2023/07/09 10:31:45;;;;;;;0.30;0.30;;;26.30;54.00;;;26.91;37.54;95504.28;5098693;28;20206;-40
2023/07/09 10:34:21;;;;;;;0.30;0.30;;;26.30;53.80;;;26.95;36.96;95499.94;5097420;28;20249;-39